Time;durP1;ratioP1;P1;durP2;ratioP2;P2;SDS_P1;SDS_P2;PMS_P1;PMS_P2;Temp;Humidity;BMP_temperature;BMP_pressure;BME280_temperature;BME280_humidity;BME280_pressure;Samples;Min_cycle;Max_cycle;Signal;HPM_P1;HPM_P2
2022/03/10 00:00:06;;;;;;;18.15;12.30;;;6.70;74.00;;;;;;5079164;28;20048;-40
2022/03/10 00:02:31;;;;;;;20.05;13.13;;;6.70;74.00;;;;;;5065948;28;20306;-40
2022/03/10 00:04:57;;;;;;;14.57;10.60;;;6.70;74.10;;;;;;5076839;28;20467;-42
2022/03/10 00:07:23;;;;;;;17.73;11.75;;;6.60;74.20;;;;;;5069512;28;20391;-41
2022/03/10 00:09:48;;;;;;;18.90;12.07;;;6.60;74.30;;;;;;5073142;28;20012;-41
2022/03/10 00:12:13;;;;;;;19.23;12.13;;;6.60;74.30;;;;;;5071484;28;20048;-42
2022/03/10 00:14:39;;;;;;;17.63;11.68;;;6.60;74.40;;;;;;5071579;28;20114;-41
2022/03/10 00:17:05;;;;;;;18.05;12.20;;;6.60;74.50;;;;;;5073455;28;20550;-41
2022/03/10 00:19:31;;;;;;;17.50;11.73;;;6.50;74.60;;;;;;5068681;28;20127;-42
2022/03/10 00:21:56;;;;;;;17.38;13.30;;;6.50;74.60;;;;;;5076253;28;20102;-41
2022/03/10 00:24:22;;;;;;;18.70;13.32;;;6.50;74.70;;;;;;5066927;28;20051;-40
2022/03/10 00:26:47;;;;;;;20.00;13.00;;;6.50;74.80;;;;;;5076998;28;20059;-41
2022/03/10 00:29:13;;;;;;;17.88;12.32;;;6.40;74.80;;;;;;5066461;28;20058;-41
2022/03/10 00:31:40;;;;;;;19.35;13.00;;;6.40;74.90;;;;;;5077674;28;20082;-41
2022/03/10 00:34:06;;;;;;;19.00;12.75;;;6.40;74.90;;;;;;5066630;28;20025;-42
2022/03/10 00:36:32;;;;;;;18.00;11.68;;;6.40;74.90;;;;;;5078039;28;20042;-41
2022/03/10 00:38:58;;;;;;;21.90;13.00;;;6.40;75.00;;;;;;5065904;28;20040;-41
2022/03/10 00:41:23;;;;;;;16.88;11.73;;;6.40;75.00;;;;;;5078277;28;20036;-41
2022/03/10 00:43:49;;;;;;;18.05;12.55;;;6.40;75.00;;;;;;5065462;28;20017;-41
2022/03/10 00:46:14;;;;;;;18.17;12.25;;;6.40;75.00;;;;;;5075834;28;20359;-40
2022/03/10 00:48:40;;;;;;;15.43;11.05;;;6.40;75.00;;;;;;5068754;28;20021;-42
2022/03/10 00:51:07;;;;;;;17.55;11.98;;;6.30;75.00;;;;;;5071811;28;20048;-41
2022/03/10 00:53:33;;;;;;;22.00;12.18;;;6.30;75.10;;;;;;5071523;28;20033;-40
2022/03/10 00:55:59;;;;;;;17.83;12.60;;;6.30;75.20;;;;;;5070124;28;20131;-42
2022/03/10 00:58:24;;;;;;;18.83;12.60;;;6.30;75.20;;;;;;5073088;28;20116;-41
2022/03/10 01:00:51;;;;;;;20.90;12.77;;;6.30;75.30;;;;;;5066186;28;20112;-43
2022/03/10 01:03:17;;;;;;;17.83;12.05;;;6.30;75.30;;;;;;5077040;28;20070;-40
2022/03/10 01:05:43;;;;;;;15.93;11.48;;;6.20;75.30;;;;;;5065817;28;20099;-41
2022/03/10 01:08:09;;;;;;;17.92;12.48;;;6.20;75.40;;;;;;5076733;28;20498;-41
2022/03/10 01:10:34;;;;;;;17.27;10.93;;;6.20;75.50;;;;;;5066116;28;20028;-43
2022/03/10 01:13:00;;;;;;;19.95;12.40;;;6.20;75.60;;;;;;5076083;28;20389;-40
2022/03/10 01:15:27;;;;;;;18.08;12.93;;;6.10;76.30;;;;;;5065817;28;20024;-41
2022/03/10 01:17:53;;;;;;;19.73;12.30;;;6.10;75.70;;;;;;5077551;28;20028;-40
2022/03/10 01:20:22;;;;;;;18.65;12.35;;;6.10;75.70;;;;;;5064850;28;20025;-42
2022/03/10 01:22:48;;;;;;;19.15;12.27;;;6.20;75.90;;;;;;5077059;28;20020;-43
2022/03/10 01:25:14;;;;;;;17.75;12.05;;;6.10;75.80;;;;;;5065110;28;20059;-42
2022/03/10 01:27:40;;;;;;;17.13;10.65;;;6.10;75.90;;;;;;5074424;28;20398;-42
2022/03/10 01:30:08;;;;;;;17.95;11.68;;;6.10;76.00;;;;;;5067091;28;20029;-41
2022/03/10 01:32:34;;;;;;;18.92;11.77;;;6.10;76.10;;;;;;5071374;28;20135;-42
2022/03/10 01:35:01;;;;;;;15.55;11.38;;;6.10;76.10;;;;;;5070427;28;20107;-40
2022/03/10 01:37:27;;;;;;;18.17;11.82;;;6.10;76.10;;;;;;5070261;28;20043;-41
2022/03/10 01:39:53;;;;;;;16.77;11.95;;;6.10;76.10;;;;;;5071606;28;20029;-43
2022/03/10 01:42:18;;;;;;;21.80;14.07;;;6.00;76.20;;;;;;5067795;28;20054;-42
2022/03/10 01:44:44;;;;;;;20.33;13.27;;;6.00;76.30;;;;;;5074025;28;20036;-43
2022/03/10 01:47:10;;;;;;;20.58;13.32;;;6.00;76.30;;;;;;5066434;28;20084;-41
2022/03/10 01:49:36;;;;;;;18.48;12.55;;;6.00;76.50;;;;;;5076884;28;20039;-43
2022/03/10 01:52:03;;;;;;;15.82;10.73;;;5.90;76.40;;;;;;5065937;28;20490;-43
2022/03/10 01:54:28;;;;;;;14.57;11.10;;;5.90;76.50;;;;;;5075927;28;20024;-42
2022/03/10 01:56:54;;;;;;;18.95;12.60;;;5.80;76.70;;;;;;5064554;28;20086;-42
2022/03/10 01:59:20;;;;;;;18.80;12.25;;;5.80;76.90;;;;;;5077620;28;20375;-42
2022/03/10 02:01:46;;;;;;;19.63;12.55;;;5.70;77.00;;;;;;5063593;28;20028;-41
2022/03/10 02:04:12;;;;;;;17.17;11.90;;;5.70;77.10;;;;;;5077454;28;20128;-42
2022/03/10 02:06:37;;;;;;;16.88;11.73;;;5.60;77.30;;;;;;5064668;28;20040;-42
2022/03/10 02:11:59;;;;;;;18.00;12.07;;;5.50;77.60;;;;;;5008963;28;20056;-41
2022/03/10 02:17:21;;;;;;;16.92;11.93;;;5.50;77.60;;;;;;5064899;28;20767;-42
2022/03/10 02:20:07;;;;;;;18.42;12.95;;;5.50;77.60;;;;;;5076603;28;20028;-41
2022/03/10 02:22:32;;;;;;;20.75;13.70;;;5.50;77.80;;;;;;5063762;28;20099;-41
2022/03/10 02:24:58;;;;;;;19.42;13.73;;;5.50;77.80;;;;;;5076267;28;20050;-39
2022/03/10 02:27:26;;;;;;;17.83;12.60;;;5.50;77.90;;;;;;5065317;28;20036;-42
2022/03/10 02:29:55;;;;;;;18.92;13.10;;;5.40;77.90;;;;;;5074316;28;20035;-40
2022/03/10 02:32:21;;;;;;;20.80;12.95;;;5.40;78.00;;;;;;5065463;28;20383;-42
2022/03/10 02:34:47;;;;;;;19.23;12.52;;;5.40;78.10;;;;;;5072854;28;20433;-41
2022/03/10 02:37:13;;;;;;;17.60;11.95;;;5.30;78.10;;;;;;5067345;28;20036;-42
2022/03/10 02:39:40;;;;;;;17.77;11.45;;;5.30;78.30;;;;;;5070742;28;20027;-40
2022/03/10 02:42:09;;;;;;;18.25;11.60;;;5.30;78.40;;;;;;5072510;28;20031;-41
2022/03/10 02:44:43;;;;;;;16.65;11.48;;;5.30;78.50;;;;;;5071917;28;20510;-40
2022/03/10 02:47:09;;;;;;;18.30;12.15;;;5.20;78.50;;;;;;5076426;28;20043;-43
2022/03/10 02:49:34;;;;;;;16.75;12.10;;;5.20;78.60;;;;;;5079795;28;20729;-41
2022/03/10 02:52:02;;;;;;;19.42;12.10;;;5.20;78.60;;;;;;5077584;28;20930;-41
2022/03/10 02:54:28;;;;;;;16.08;11.50;;;5.20;78.80;;;;;;5087243;28;20028;-41
2022/03/10 02:56:53;;;;;;;18.33;12.10;;;5.20;78.90;;;;;;5075972;28;20031;-41
2022/03/10 02:59:18;;;;;;;16.67;11.02;;;5.20;78.90;;;;;;5087137;28;20016;-40
2022/03/10 03:01:44;;;;;;;16.63;11.88;;;5.10;79.00;;;;;;5076646;28;20459;-40
2022/03/10 03:04:09;;;;;;;19.58;12.30;;;5.10;79.10;;;;;;5086689;28;20039;-41
2022/03/10 03:06:35;;;;;;;19.35;12.23;;;5.10;79.20;;;;;;5075196;28;20430;-39
2022/03/10 03:09:00;;;;;;;18.85;12.23;;;5.10;79.30;;;;;;5088380;28;20020;-39
2022/03/10 03:11:26;;;;;;;16.75;11.55;;;5.10;79.30;;;;;;5074625;28;20524;-39
2022/03/10 03:13:51;;;;;;;17.35;11.05;;;5.10;79.20;;;;;;5087453;28;20032;-40
2022/03/10 03:16:17;;;;;;;19.85;12.27;;;5.00;79.30;;;;;;5078293;28;20040;-41
2022/03/10 03:18:43;;;;;;;18.17;12.57;;;5.00;79.40;;;;;;5084631;28;20027;-41
2022/03/10 03:21:08;;;;;;;17.55;12.32;;;5.00;79.50;;;;;;5080606;28;20385;-43
2022/03/10 03:23:34;;;;;;;20.77;12.52;;;5.00;79.60;;;;;;5082583;28;20039;-42
2022/03/10 03:25:59;;;;;;;19.13;12.43;;;5.00;79.60;;;;;;5082079;28;20843;-42
2022/03/10 03:28:25;;;;;;;18.35;11.57;;;4.90;79.70;;;;;;5080442;28;20036;-42
2022/03/10 03:30:51;;;;;;;18.70;11.43;;;4.90;79.80;;;;;;5085878;28;20688;-42
2022/03/10 03:33:17;;;;;;;19.67;12.65;;;4.90;79.90;;;;;;5076767;28;20024;-39
2022/03/10 03:35:43;;;;;;;18.88;12.88;;;4.90;80.00;;;;;;5086211;28;20058;-40
2022/03/10 03:38:09;;;;;;;17.27;11.85;;;4.80;80.00;;;;;;5076487;28;20028;-41
2022/03/10 03:40:34;;;;;;;20.23;13.05;;;4.80;80.00;;;;;;5086350;28;20038;-44
2022/03/10 03:43:03;;;;;;;18.38;12.75;;;4.80;80.20;;;;;;5075457;28;20035;-39
2022/03/10 03:45:32;;;;;;;18.17;12.23;;;4.80;80.30;;;;;;5088016;28;20669;-41
2022/03/10 03:47:57;;;;;;;18.33;12.60;;;4.80;80.30;;;;;;5073516;28;20029;-41
2022/03/10 03:50:25;;;;;;;19.95;12.93;;;4.80;80.30;;;;;;5087438;28;20093;-40
2022/03/10 03:52:51;;;;;;;20.67;13.20;;;4.70;80.60;;;;;;5073355;28;20510;-41
2022/03/10 03:55:19;;;;;;;20.30;12.77;;;4.70;80.70;;;;;;5086704;28;20139;-40
2022/03/10 03:57:45;;;;;;;20.92;13.00;;;4.70;80.70;;;;;;5076110;28;20024;-40
2022/03/10 04:00:10;;;;;;;22.60;13.52;;;4.70;80.70;;;;;;5084878;28;20486;-40
2022/03/10 04:02:37;;;;;;;20.38;12.93;;;4.70;80.70;;;;;;5079198;28;20039;-41
2022/03/10 04:05:06;;;;;;;21.27;13.07;;;4.70;80.70;;;;;;5082552;28;20031;-41
2022/03/10 04:07:31;;;;;;;19.15;12.45;;;4.60;80.80;;;;;;5080802;28;20320;-42
2022/03/10 04:09:57;;;;;;;21.45;13.15;;;4.60;80.90;;;;;;5079824;28;20476;-41
2022/03/10 04:12:23;;;;;;;18.67;12.43;;;4.60;80.90;;;;;;5083794;28;20398;-41
2022/03/10 04:14:48;;;;;;;17.45;11.70;;;4.60;81.00;;;;;;5076160;28;20114;-40
2022/03/10 04:17:14;;;;;;;16.63;11.73;;;4.50;81.10;;;;;;5085628;28;20027;-41
2022/03/10 04:19:39;;;;;;;21.10;12.20;;;4.40;81.30;;;;;;5075524;28;20805;-40
2022/03/10 04:22:05;;;;;;;17.05;11.63;;;4.40;81.40;;;;;;5084619;28;20024;-42
2022/03/10 04:24:31;;;;;;;19.55;12.00;;;4.40;81.50;;;;;;5075287;28;20015;-42
2022/03/10 04:26:56;;;;;;;17.80;12.45;;;4.30;81.60;;;;;;5086055;28;20578;-41
2022/03/10 04:29:22;;;;;;;17.33;12.18;;;4.30;81.80;;;;;;5073556;28;20772;-42
2022/03/10 04:31:48;;;;;;;17.85;12.23;;;4.30;81.80;;;;;;5086197;28;20071;-42
2022/03/10 04:34:13;;;;;;;17.63;12.18;;;4.30;81.80;;;;;;5073899;28;20112;-40
2022/03/10 04:36:39;;;;;;;18.92;11.82;;;4.30;81.80;;;;;;5085881;28;20028;-40
2022/03/10 04:39:05;;;;;;;17.80;11.68;;;4.30;82.00;;;;;;5075908;28;20029;-44
2022/03/10 04:41:30;;;;;;;17.70;11.45;;;4.20;82.00;;;;;;5083660;28;20028;-39
2022/03/10 04:43:56;;;;;;;20.02;11.13;;;4.20;82.10;;;;;;5077852;28;20364;-42
2022/03/10 04:46:23;;;;;;;20.48;12.38;;;4.20;82.10;;;;;;5081559;28;20491;-42
2022/03/10 04:48:49;;;;;;;19.55;12.52;;;4.10;82.20;;;;;;5080600;28;20028;-40
2022/03/10 04:51:14;;;;;;;17.83;11.48;;;4.10;82.40;;;;;;5078065;28;20429;-39
2022/03/10 04:53:40;;;;;;;18.95;12.68;;;4.10;82.50;;;;;;5083642;28;20016;-43
2022/03/10 04:56:06;;;;;;;18.77;12.82;;;4.10;82.60;;;;;;5075990;28;20036;-43
2022/03/10 04:58:32;;;;;;;18.85;12.48;;;4.00;82.70;;;;;;5084318;28;20563;-41
2022/03/10 05:00:57;;;;;;;19.17;11.98;;;4.00;82.80;;;;;;5074564;28;20024;-42
2022/03/10 05:03:23;;;;;;;19.40;12.80;;;3.90;83.00;;;;;;5085387;28;20166;-41
2022/03/10 05:05:48;;;;;;;20.00;12.13;;;3.90;83.20;;;;;;5073010;28;20345;-40
2022/03/10 05:08:14;;;;;;;16.90;11.80;;;3.80;83.30;;;;;;5086174;28;20027;-43
2022/03/10 05:10:39;;;;;;;21.35;13.18;;;3.80;83.40;;;;;;5072477;28;20551;-41
2022/03/10 05:13:05;;;;;;;19.15;12.70;;;3.80;83.50;;;;;;5085617;28;20475;-42
2022/03/10 05:15:31;;;;;;;20.23;12.98;;;3.80;83.50;;;;;;5073354;28;20029;-36
2022/03/10 05:17:58;;;;;;;21.60;14.00;;;3.80;83.60;;;;;;5084968;28;20100;-42
2022/03/10 05:20:25;;;;;;;19.33;13.35;;;3.80;83.60;;;;;;5075814;28;20345;-41
2022/03/10 05:22:55;;;;;;;21.58;13.38;;;3.80;83.60;;;;;;5082105;28;20919;-42
2022/03/10 05:25:22;;;;;;;23.23;14.93;;;3.80;83.60;;;;;;5077153;28;20031;-40
2022/03/10 05:27:48;;;;;;;21.02;13.60;;;3.90;83.80;;;;;;5080697;28;20111;-41
2022/03/10 05:30:16;;;;;;;24.38;15.57;;;3.90;83.60;;;;;;5079912;28;20612;-42
2022/03/10 05:32:41;;;;;;;24.52;14.70;;;4.00;83.60;;;;;;5077362;28;20082;-42
2022/03/10 05:35:09;;;;;;;21.90;14.88;;;4.00;83.50;;;;;;5082472;28;20368;-41
2022/03/10 05:37:38;;;;;;;22.92;15.05;;;4.00;83.50;;;;;;5075744;28;20035;-42
2022/03/10 05:40:13;;;;;;;24.70;14.77;;;4.10;83.50;;;;;;5082844;28;20035;-41
2022/03/10 05:42:40;;;;;;;23.80;14.48;;;4.10;83.50;;;;;;5075234;28;20020;-40
2022/03/10 05:45:07;;;;;;;21.92;14.75;;;4.10;83.40;;;;;;5083840;28;20044;-41
2022/03/10 05:47:34;;;;;;;19.55;13.07;;;4.10;83.30;;;;;;5072790;28;20051;-41
2022/03/10 05:50:00;;;;;;;19.33;13.55;;;4.10;83.30;;;;;;5083927;28;20038;-40
2022/03/10 05:52:25;;;;;;;18.48;12.45;;;4.00;83.20;;;;;;5076171;28;20040;-42
2022/03/10 05:54:51;;;;;;;18.10;11.98;;;4.00;83.30;;;;;;5063660;28;20070;-39
2022/03/10 05:57:16;;;;;;;20.25;12.48;;;4.00;83.30;;;;;;5077749;28;20067;-43
2022/03/10 05:59:42;;;;;;;17.83;12.10;;;4.00;83.40;;;;;;5064556;28;20476;-42
2022/03/10 06:02:07;;;;;;;23.25;12.98;;;4.00;83.40;;;;;;5076900;28;20478;-41
2022/03/10 06:04:33;;;;;;;22.15;14.65;;;3.90;83.40;;;;;;5065065;28;20024;-42
2022/03/10 06:06:59;;;;;;;22.52;14.85;;;4.00;83.50;;;;;;5073460;28;20539;-41
2022/03/10 06:09:24;;;;;;;25.25;14.85;;;3.90;83.40;;;;;;5067679;28;20020;-42
2022/03/10 06:11:50;;;;;;;19.52;13.25;;;4.00;83.50;;;;;;5071853;28;20035;-41
2022/03/10 06:14:17;;;;;;;21.55;14.23;;;4.00;83.40;;;;;;5069528;28;20045;-41
2022/03/10 06:16:43;;;;;;;20.10;13.32;;;3.90;83.30;;;;;;5071798;28;20055;-39
2022/03/10 06:19:09;;;;;;;21.52;13.82;;;3.90;83.30;;;;;;5079559;28;20059;-39
2022/03/10 06:21:34;;;;;;;18.80;12.10;;;3.90;83.20;;;;;;5072569;28;20101;-39
2022/03/10 06:24:01;;;;;;;15.95;10.93;;;3.90;83.30;;;;;;5082079;28;20017;-41
2022/03/10 06:26:26;;;;;;;18.92;12.32;;;3.90;83.30;;;;;;5073385;28;20138;-42
2022/03/10 06:28:52;;;;;;;18.83;11.95;;;3.90;83.30;;;;;;5081488;28;20153;-41
2022/03/10 06:31:17;;;;;;;20.27;13.60;;;3.90;83.30;;;;;;5071983;28;20072;-41
2022/03/10 06:33:43;;;;;;;22.08;14.27;;;3.90;83.20;;;;;;5082723;28;20021;-42
2022/03/10 06:36:09;;;;;;;21.35;14.55;;;4.00;83.20;;;;;;5070982;28;20021;-41
2022/03/10 06:38:36;;;;;;;20.42;13.88;;;4.00;83.20;;;;;;5084080;28;20055;-42
2022/03/10 06:41:01;;;;;;;19.70;13.60;;;4.00;83.10;;;;;;5071295;28;20030;-42
2022/03/10 06:43:27;;;;;;;20.73;12.82;;;4.00;83.00;;;;;;5082278;28;20551;-42
2022/03/10 06:45:52;;;;;;;19.75;12.93;;;4.10;83.10;;;;;;5071518;28;20058;-41
2022/03/10 06:48:18;;;;;;;22.23;13.25;;;4.10;83.00;;;;;;5080331;28;20028;-41
2022/03/10 06:50:43;;;;;;;22.55;13.65;;;4.10;82.90;;;;;;5081282;28;20024;-41
2022/03/10 06:53:09;;;;;;;20.55;13.65;;;4.10;82.90;;;;;;5084908;28;20027;-41
2022/03/10 06:55:34;;;;;;;22.52;14.18;;;4.20;82.90;;;;;;5086284;28;20071;-40
2022/03/10 06:58:00;;;;;;;18.70;12.52;;;4.20;82.80;;;;;;5085983;28;20023;-41
2022/03/10 07:00:25;;;;;;;20.08;13.50;;;4.20;82.70;;;;;;5083067;28;20020;-43
2022/03/10 07:02:54;;;;;;;22.30;13.38;;;4.30;82.70;;;;;;5089066;28;20027;-39
2022/03/10 07:05:20;;;;;;;22.58;14.55;;;4.30;82.60;;;;;;5079825;28;20028;-42
2022/03/10 07:07:46;;;;;;;23.58;15.02;;;4.40;82.50;;;;;;5086437;28;20048;-41
2022/03/10 07:10:12;;;;;;;23.92;15.20;;;4.40;82.50;;;;;;5078588;28;20032;-42
2022/03/10 07:12:39;;;;;;;24.30;15.10;;;4.40;82.40;;;;;;5089827;28;20035;-38
2022/03/10 07:15:07;;;;;;;23.20;15.55;;;4.50;82.30;;;;;;5078050;28;20016;-42
2022/03/10 07:17:33;;;;;;;22.85;15.23;;;4.50;82.30;;;;;;5089159;28;20049;-42
2022/03/10 07:19:58;;;;;;;24.40;14.40;;;4.60;82.20;;;;;;5076754;28;20391;-41
2022/03/10 07:22:24;;;;;;;23.77;15.32;;;4.60;82.10;;;;;;5090341;28;20036;-40
2022/03/10 07:24:50;;;;;;;20.60;14.40;;;4.70;82.10;;;;;;5077468;28;20467;-41
2022/03/10 07:27:16;;;;;;;24.23;15.07;;;4.70;82.00;;;;;;5088519;28;20032;-41
2022/03/10 07:29:41;;;;;;;22.38;13.80;;;4.80;82.00;;;;;;5076657;28;20039;-41
2022/03/10 07:32:07;;;;;;;21.15;14.73;;;4.80;81.90;;;;;;5082426;28;20052;-42
2022/03/10 07:34:34;;;;;;;20.95;13.73;;;4.90;81.90;;;;;;5072799;28;20081;-45
2022/03/10 07:36:59;;;;;;;23.65;15.05;;;4.90;81.90;;;;;;5071730;28;20182;-43
2022/03/10 07:39:25;;;;;;;23.17;14.18;;;5.00;81.90;;;;;;5070441;28;20102;-41
2022/03/10 07:41:50;;;;;;;20.17;14.35;;;5.00;81.80;;;;;;5074626;28;20376;-42
2022/03/10 07:44:16;;;;;;;24.35;15.00;;;5.10;81.80;;;;;;5068172;28;20115;-40
2022/03/10 07:46:42;;;;;;;22.27;15.93;;;5.10;81.70;;;;;;5076497;28;20036;-42
2022/03/10 07:49:08;;;;;;;22.88;15.80;;;5.20;81.80;;;;;;5075908;28;20141;-42
2022/03/10 07:51:34;;;;;;;22.48;14.82;;;5.20;81.60;;;;;;5075068;28;20093;-42
2022/03/10 07:54:00;;;;;;;20.20;13.00;;;5.20;82.10;;;;;;5096741;28;20471;-42
2022/03/10 07:56:27;;;;;;;22.20;13.50;;;5.30;81.50;;;;;;5078889;28;20036;-42
2022/03/10 07:58:52;;;;;;;21.55;14.88;;;5.30;81.50;;;;;;5066729;28;20033;-39
2022/03/10 08:01:18;;;;;;;22.80;15.13;;;5.40;81.50;;;;;;5078642;28;20038;-43
2022/03/10 08:03:46;;;;;;;26.65;16.08;;;5.40;81.40;;;;;;5067140;28;20025;-39
2022/03/10 08:06:12;;;;;;;24.60;15.77;;;5.50;81.20;;;;;;5071847;28;20052;-41
2022/03/10 08:08:38;;;;;;;21.00;14.23;;;5.50;81.10;;;;;;5101467;28;20074;-46
2022/03/10 08:11:05;;;;;;;22.88;14.05;;;5.60;81.20;;;;;;5089246;28;20043;-41
2022/03/10 08:13:31;;;;;;;23.67;13.15;;;5.60;81.20;;;;;;5069337;28;20036;-41
2022/03/10 08:15:57;;;;;;;24.45;14.85;;;5.70;81.20;;;;;;5073019;28;20095;-43
2022/03/10 08:18:23;;;;;;;18.90;13.77;;;5.70;81.20;;;;;;5072770;28;20116;-41
2022/03/10 08:20:49;;;;;;;21.75;14.10;;;5.80;81.20;;;;;;5069605;28;20054;-42
2022/03/10 08:23:16;;;;;;;24.35;15.25;;;5.80;81.20;;;;;;5075336;28;20475;-42
2022/03/10 08:25:42;;;;;;;19.88;13.55;;;5.90;81.20;;;;;;5068338;28;20063;-40
2022/03/10 08:28:08;;;;;;;21.80;14.13;;;6.00;81.20;;;;;;5076790;28;20056;-39
2022/03/10 08:30:34;;;;;;;18.67;13.25;;;6.00;81.20;;;;;;5067875;28;20023;-40
2022/03/10 08:32:59;;;;;;;17.98;12.45;;;6.00;81.20;;;;;;5077659;28;20021;-42
2022/03/10 08:35:25;;;;;;;19.27;13.10;;;6.10;81.40;;;;;;5066632;28;20028;-42
2022/03/10 08:37:51;;;;;;;21.58;13.35;;;6.10;81.40;;;;;;5078419;28;20019;-41
2022/03/10 08:40:19;;;;;;;20.77;13.50;;;6.20;81.40;;;;;;5066413;28;20206;-39
2022/03/10 08:42:46;;;;;;;23.30;14.32;;;6.20;81.30;;;;;;5077788;28;20031;-43
2022/03/10 08:45:12;;;;;;;22.67;15.00;;;6.30;81.20;;;;;;5066968;28;20067;-41
2022/03/10 08:47:38;;;;;;;21.75;14.20;;;6.40;81.20;;;;;;5078007;28;20047;-42
2022/03/10 08:50:05;;;;;;;20.13;13.93;;;6.40;81.20;;;;;;5065823;28;20025;-42
2022/03/10 08:52:31;;;;;;;21.80;14.13;;;6.40;81.10;;;;;;5076153;28;20043;-42
2022/03/10 08:54:56;;;;;;;23.05;14.77;;;6.50;81.10;;;;;;5068562;28;20041;-41
2022/03/10 08:57:22;;;;;;;20.83;14.38;;;6.50;81.10;;;;;;5072223;28;20032;-40
2022/03/10 08:59:47;;;;;;;21.42;14.48;;;6.60;81.20;;;;;;5070740;28;20027;-39
2022/03/10 09:02:13;;;;;;;19.45;13.95;;;6.60;81.20;;;;;;5070756;28;20106;-39
2022/03/10 09:04:39;;;;;;;20.58;13.40;;;6.70;81.30;;;;;;5073152;28;20078;-42
2022/03/10 09:07:05;;;;;;;19.92;13.57;;;6.70;81.30;;;;;;5067766;28;20021;-40
2022/03/10 09:09:31;;;;;;;18.98;12.57;;;6.80;81.40;;;;;;5076554;28;20020;-42
2022/03/10 09:11:57;;;;;;;19.85;13.57;;;6.80;81.40;;;;;;5066193;28;20039;-40
2022/03/10 09:14:22;;;;;;;18.98;13.02;;;6.90;81.40;;;;;;5072230;28;20103;-39
2022/03/10 09:16:48;;;;;;;20.20;12.98;;;7.00;81.60;;;;;;5083273;28;20104;-39
2022/03/10 09:19:14;;;;;;;19.13;12.98;;;7.00;81.60;;;;;;5072190;28;20020;-44
2022/03/10 09:21:39;;;;;;;20.17;13.23;;;7.10;81.70;;;;;;5083980;28;20177;-41
2022/03/10 09:24:05;;;;;;;18.17;13.52;;;7.10;81.60;;;;;;5070790;28;20031;-40
2022/03/10 09:26:31;;;;;;;18.65;12.75;;;7.20;81.80;;;;;;5084036;28;20035;-41
2022/03/10 09:28:56;;;;;;;22.10;14.35;;;7.20;81.80;;;;;;5072822;28;20040;-41
2022/03/10 09:31:22;;;;;;;21.45;13.93;;;7.30;81.90;;;;;;5084440;28;20065;-42
2022/03/10 09:33:47;;;;;;;22.02;14.43;;;7.40;82.00;;;;;;5075602;28;20086;-40
2022/03/10 09:36:14;;;;;;;19.45;13.35;;;7.40;82.00;;;;;;5081909;28;20368;-42
2022/03/10 09:38:42;;;;;;;18.17;12.50;;;7.50;82.00;;;;;;5078295;28;20100;-40
2022/03/10 09:41:08;;;;;;;17.58;11.98;;;7.60;82.00;;;;;;5079483;28;20107;-42
2022/03/10 09:43:35;;;;;;;20.27;13.02;;;7.70;82.00;;;;;;5079870;28;20052;-42
2022/03/10 09:46:01;;;;;;;18.67;13.23;;;7.70;82.00;;;;;;5076196;28;20031;-40
2022/03/10 09:48:26;;;;;;;19.67;14.23;;;7.80;82.00;;;;;;5083192;28;20143;-42
2022/03/10 09:50:52;;;;;;;17.65;12.93;;;7.90;82.00;;;;;;5073335;28;20473;-40
2022/03/10 09:53:19;;;;;;;19.58;14.05;;;8.00;81.90;;;;;;5083446;28;20078;-41
2022/03/10 09:55:45;;;;;;;19.38;13.00;;;8.10;82.10;;;;;;5071240;28;20044;-42
2022/03/10 09:58:10;;;;;;;20.20;13.65;;;8.20;81.80;;;;;;5084192;28;20035;-39
2022/03/10 10:00:36;;;;;;;18.80;12.85;;;8.30;81.80;;;;;;5072229;28;20016;-37
2022/03/10 10:03:01;;;;;;;21.90;14.18;;;8.30;81.80;;;;;;5085191;28;20051;-38
2022/03/10 10:05:28;;;;;;;23.67;14.73;;;8.40;81.70;;;;;;5071741;28;20468;-42
2022/03/10 10:08:02;;;;;;;21.90;13.88;;;8.50;81.70;;;;;;5066663;28;20029;-42
2022/03/10 10:10:29;;;;;;;22.60;15.07;;;8.50;81.70;;;;;;5076055;28;20420;-41
2022/03/10 10:12:54;;;;;;;20.05;13.70;;;8.60;81.80;;;;;;5062906;28;20419;-41
2022/03/10 10:15:20;;;;;;;21.08;15.27;;;8.70;81.80;;;;;;5074419;28;20551;-39
2022/03/10 10:17:57;;;;;;;20.67;14.40;;;8.80;81.80;;;;;;5065730;28;20059;-42
2022/03/10 10:20:23;;;;;;;20.90;14.75;;;8.90;82.40;;;;;;5072656;28;20107;-41
2022/03/10 10:22:50;;;;;;;19.35;14.02;;;9.00;81.80;;;;;;5066811;28;20111;-40
2022/03/10 10:25:20;;;;;;;25.17;15.63;;;9.00;81.70;;;;;;5070437;28;20032;-43
2022/03/10 10:27:46;;;;;;;21.42;14.32;;;9.10;81.80;;;;;;5067435;28;20020;-44
2022/03/10 10:30:12;;;;;;;21.67;14.90;;;9.20;81.80;;;;;;5068613;28;20042;-42
2022/03/10 10:32:48;;;;;;;22.30;15.48;;;9.30;81.90;;;;;;5071316;28;20040;-41
2022/03/10 10:35:20;;;;;;;20.52;14.20;;;9.30;81.80;;;;;;5066815;28;20152;-44
2022/03/10 10:37:49;;;;;;;19.95;13.18;;;9.40;81.80;;;;;;5070944;28;20457;-43
2022/03/10 10:40:27;;;;;;;21.40;15.07;;;9.50;81.80;;;;;;5066127;28;20123;-42
2022/03/10 10:42:53;;;;;;;20.48;14.15;;;9.60;81.80;;;;;;5071641;28;20047;-42
2022/03/10 10:45:28;;;;;;;21.15;15.52;;;9.70;81.80;;;;;;5064722;28;20040;-41
2022/03/10 10:47:58;;;;;;;26.27;17.52;;;9.70;81.70;;;;;;5072454;28;20028;-42
2022/03/10 10:50:24;;;;;;;22.17;14.63;;;9.80;81.70;;;;;;5063953;28;20087;-43
2022/03/10 10:52:49;;;;;;;20.58;14.45;;;9.90;81.70;;;;;;5074663;28;20068;-42
2022/03/10 10:55:15;;;;;;;22.60;15.73;;;10.00;81.80;;;;;;5064048;28;20045;-43
2022/03/10 10:57:43;;;;;;;22.02;14.70;;;10.00;81.80;;;;;;5074256;28;20028;-42
2022/03/10 11:00:11;;;;;;;20.70;13.73;;;10.10;81.80;;;;;;5064075;28;20067;-41
2022/03/10 11:02:44;;;;;;;23.67;16.00;;;10.10;81.70;;;;;;5076029;28;20502;-41
2022/03/10 11:05:14;;;;;;;19.90;14.15;;;10.20;81.80;;;;;;5067871;28;20045;-40
2022/03/10 11:07:40;;;;;;;25.65;13.55;;;10.30;81.70;;;;;;5079938;28;20028;-42
2022/03/10 11:10:07;;;;;;;19.83;12.90;;;10.40;81.60;;;;;;5066540;28;20115;-43
2022/03/10 11:12:39;;;;;;;18.20;12.18;;;10.40;81.60;;;;;;5079626;28;20511;-43
2022/03/10 11:15:07;;;;;;;18.20;13.35;;;10.50;81.50;;;;;;5067607;28;20021;-41
2022/03/10 11:17:34;;;;;;;20.73;13.20;;;10.60;81.50;;;;;;5077497;28;20043;-41
2022/03/10 11:20:01;;;;;;;18.98;13.57;;;10.60;81.40;;;;;;5067510;28;20043;-41
2022/03/10 11:22:41;;;;;;;18.83;12.95;;;10.70;81.40;;;;;;5076619;28;20059;-43
2022/03/10 11:25:30;;;;;;;19.33;12.50;;;10.70;81.30;;;;;;5068425;28;20039;-41
2022/03/10 11:28:16;;;;;;;21.77;14.05;;;10.80;81.30;;;;;;5078108;28;20040;-42
2022/03/10 11:30:48;;;;;;;19.35;13.38;;;10.90;81.20;;;;;;5065782;28;20077;-42
2022/03/10 11:33:18;;;;;;;22.73;15.57;;;11.00;81.00;;;;;;5079513;28;20046;-43
2022/03/10 11:35:50;;;;;;;24.65;15.52;;;11.10;80.70;;;;;;5066202;28;20021;-43
2022/03/10 11:38:18;;;;;;;22.40;15.55;;;11.20;80.50;;;;;;5077731;28;20028;-41
2022/03/10 11:41:00;;;;;;;24.20;15.70;;;11.20;80.20;;;;;;5067247;28;20082;-42
2022/03/10 11:43:25;;;;;;;24.95;15.88;;;11.40;80.00;;;;;;5077981;28;20032;-41
2022/03/10 11:45:51;;;;;;;22.75;15.60;;;11.40;79.80;;;;;;5066548;28;20035;-42
2022/03/10 11:48:23;;;;;;;19.55;13.95;;;11.50;79.70;;;;;;5075442;28;20028;-41
2022/03/10 11:50:49;;;;;;;20.40;13.50;;;11.60;79.80;;;;;;5068771;28;20032;-40
2022/03/10 11:53:15;;;;;;;22.05;15.13;;;11.60;79.70;;;;;;5072814;28;20541;-43
2022/03/10 11:55:43;;;;;;;22.77;14.77;;;11.70;79.30;;;;;;5071341;28;20065;-43
2022/03/10 11:58:11;;;;;;;22.25;14.38;;;11.70;79.30;;;;;;5071619;28;20054;-40
2022/03/10 12:00:39;;;;;;;19.33;13.00;;;11.80;79.20;;;;;;5073023;28;20047;-43
2022/03/10 12:03:05;;;;;;;22.23;13.90;;;11.80;79.20;;;;;;5082503;28;20034;-42
2022/03/10 12:05:59;;;;;;;21.10;13.20;;;11.90;79.10;;;;;;5076958;28;20023;-41
2022/03/10 12:08:31;;;;;;;23.35;14.93;;;11.90;78.90;;;;;;5082621;28;20173;-43
2022/03/10 12:10:58;;;;;;;19.17;13.68;;;12.00;78.50;;;;;;5081491;28;20040;-42
2022/03/10 12:13:34;;;;;;;22.08;14.38;;;12.10;78.40;;;;;;5083689;28;20036;-42
2022/03/10 12:16:07;;;;;;;20.88;15.02;;;12.10;78.00;;;;;;5078188;28;20035;-39
2022/03/10 12:18:38;;;;;;;19.60;14.73;;;12.10;77.90;;;;;;5083812;28;20483;-41
2022/03/10 12:21:16;;;;;;;23.38;14.70;;;12.20;77.70;;;;;;5076345;28;20040;-41
2022/03/10 12:23:51;;;;;;;21.95;14.73;;;12.30;77.70;;;;;;5083861;28;20020;-43
2022/03/10 12:26:24;;;;;;;24.00;15.65;;;12.30;77.30;;;;;;5087457;28;20013;-41
2022/03/10 12:28:53;;;;;;;21.63;14.70;;;12.40;76.70;;;;;;5083885;28;20119;-41
2022/03/10 12:31:19;;;;;;;21.48;15.18;;;12.40;76.30;;;;;;5076489;28;20048;-42
2022/03/10 12:33:51;;;;;;;21.33;14.95;;;12.50;76.40;;;;;;5083966;28;20104;-42
2022/03/10 12:36:36;;;;;;;21.98;14.55;;;12.50;76.50;;;;;;5075061;28;20802;-40
2022/03/10 12:39:08;;;;;;;28.02;17.02;;;12.60;76.50;;;;;;5085075;28;20107;-43